createdAt,value
2023-03-31T00:00:53.518Z,3.97
2023-03-31T00:03:23.865Z,2.53
2023-03-31T00:05:58.447Z,2.70
2023-03-31T00:08:29.883Z,4.22
2023-03-31T00:10:58.897Z,2.70
2023-03-31T00:13:25.420Z,2.80
2023-03-31T00:15:56.557Z,3.60
2023-03-31T00:18:22.913Z,2.60
2023-03-31T00:20:49.177Z,3.17
2023-03-31T00:23:15.453Z,2.97
2023-03-31T00:25:41.878Z,4.72
2023-03-31T00:28:08.303Z,2.90
2023-03-31T00:30:34.611Z,4.05
2023-03-31T00:33:01.692Z,3.00
2023-03-31T00:35:27.981Z,2.90
2023-03-31T00:37:57.774Z,2.58
2023-03-31T00:40:24.038Z,2.22
2023-03-31T00:42:50.322Z,2.53
2023-03-31T00:45:16.829Z,2.78
2023-03-31T00:47:52.606Z,2.60
2023-03-31T00:50:26.287Z,2.83
2023-03-31T00:53:10.915Z,2.88
2023-03-31T00:55:40.275Z,2.40
2023-03-31T00:58:06.871Z,2.05
2023-03-31T01:00:33.306Z,2.35
2023-03-31T01:03:02.230Z,2.70
2023-03-31T01:05:28.487Z,2.75
2023-03-31T01:07:55.755Z,3.22
2023-03-31T01:10:22.614Z,2.30
2023-03-31T01:12:51.643Z,3.13
2023-03-31T01:15:18.239Z,2.58
2023-03-31T01:17:45.068Z,2.60
2023-03-31T01:20:23.828Z,2.85
2023-03-31T01:22:54.602Z,2.55
2023-03-31T01:25:33.922Z,2.58
2023-03-31T01:28:00.408Z,2.88
2023-03-31T01:30:45.439Z,2.65
2023-03-31T01:33:14.755Z,2.87
2023-03-31T01:36:00.171Z,2.63
2023-03-31T01:38:43.227Z,2.35
2023-03-31T01:41:22.621Z,2.35
2023-03-31T01:44:00.894Z,2.28
2023-03-31T01:46:46.382Z,2.53
2023-03-31T01:49:12.770Z,2.90
2023-03-31T01:51:42.054Z,2.30
2023-03-31T01:54:08.340Z,3.22
2023-03-31T01:56:37.535Z,2.85
2023-03-31T01:59:10.832Z,2.58
2023-03-31T02:01:40.719Z,2.30
2023-03-31T02:04:18.802Z,2.90
2023-03-31T02:06:47.199Z,3.33
2023-03-31T02:09:16.268Z,2.95
2023-03-31T02:11:43.325Z,3.42
2023-03-31T02:14:12.177Z,2.75
2023-03-31T02:16:41.821Z,3.25
2023-03-31T02:19:09.581Z,3.08
2023-03-31T02:21:38.117Z,2.30
2023-03-31T02:24:05.966Z,2.80
2023-03-31T02:26:35.669Z,3.55
2023-03-31T02:29:02.305Z,3.60
2023-03-31T02:31:28.783Z,3.42
2023-03-31T02:33:55.757Z,3.08
2023-03-31T02:36:22.620Z,4.47
2023-03-31T02:38:52.134Z,4.22
2023-03-31T02:41:18.451Z,4.43
2023-03-31T02:43:44.859Z,3.55
2023-03-31T02:46:11.845Z,3.47
2023-03-31T02:48:41.356Z,3.58
2023-03-31T02:51:08.567Z,3.55
2023-03-31T02:53:56.861Z,3.92
2023-03-31T02:56:34.798Z,3.10
2023-03-31T02:59:03.961Z,3.63
2023-03-31T03:01:42.645Z,3.42
2023-03-31T03:04:17.106Z,3.35
2023-03-31T03:06:53.748Z,4.03
2023-03-31T03:09:35.321Z,4.68
2023-03-31T03:12:08.346Z,3.55
2023-03-31T03:14:37.712Z,3.28
2023-03-31T03:17:24.549Z,3.47
2023-03-31T03:19:53.250Z,3.25
2023-03-31T03:22:19.649Z,3.30
2023-03-31T03:24:46.224Z,3.03
2023-03-31T03:27:12.493Z,3.30
2023-03-31T03:29:38.802Z,3.30
2023-03-31T03:32:05.505Z,3.10
2023-03-31T03:34:31.770Z,2.60
2023-03-31T03:36:58.337Z,2.33
2023-03-31T03:39:24.918Z,2.15
2023-03-31T03:41:51.198Z,3.58
2023-03-31T03:44:17.468Z,2.65
2023-03-31T03:46:43.858Z,3.90
2023-03-31T03:49:10.211Z,3.42
2023-03-31T03:51:36.617Z,2.60
2023-03-31T03:54:03.154Z,2.50
2023-03-31T03:56:29.583Z,3.28
2023-03-31T03:58:56.124Z,2.53
2023-03-31T04:01:22.778Z,3.35
2023-03-31T04:03:49.140Z,2.58
2023-03-31T04:06:15.727Z,2.65
2023-03-31T04:08:42.019Z,2.75
2023-03-31T04:11:19.011Z,2.60
2023-03-31T04:13:46.151Z,2.08
2023-03-31T04:16:12.633Z,1.83
2023-03-31T04:18:42.776Z,2.15
2023-03-31T04:21:12.162Z,2.17
2023-03-31T04:23:42.646Z,2.10
2023-03-31T04:26:09.795Z,2.00
2023-03-31T04:28:36.934Z,2.05
2023-03-31T04:31:03.965Z,1.85
2023-03-31T04:33:30.553Z,1.48
2023-03-31T04:35:56.909Z,1.30
2023-03-31T04:38:23.966Z,1.48
2023-03-31T04:40:51.121Z,1.50
2023-03-31T04:43:18.188Z,1.83
2023-03-31T04:45:44.836Z,1.48
2023-03-31T04:48:11.176Z,1.65
2023-03-31T04:50:37.938Z,1.38
2023-03-31T04:53:04.716Z,2.55
2023-03-31T04:55:31.344Z,2.00
2023-03-31T04:57:57.659Z,2.33
2023-03-31T05:00:24.259Z,2.35
2023-03-31T05:02:51.539Z,2.03
2023-03-31T05:05:17.940Z,2.33
2023-03-31T05:07:44.230Z,2.83
2023-03-31T05:10:10.851Z,3.15
2023-03-31T05:12:37.916Z,3.17
2023-03-31T05:15:04.820Z,3.38
2023-03-31T05:17:32.786Z,3.22
2023-03-31T05:19:59.734Z,3.17
2023-03-31T05:22:26.325Z,3.17
2023-03-31T05:24:52.983Z,3.55
2023-03-31T05:27:21.826Z,2.80
2023-03-31T05:29:48.168Z,3.45
2023-03-31T05:32:14.467Z,3.00
2023-03-31T05:34:43.212Z,2.55
2023-03-31T05:37:09.555Z,2.67
2023-03-31T05:39:36.251Z,3.20
2023-03-31T05:42:03.353Z,2.45
2023-03-31T05:44:29.682Z,2.95
2023-03-31T05:46:56.264Z,2.88
2023-03-31T05:49:22.731Z,2.85
2023-03-31T05:51:49.125Z,2.70
2023-03-31T05:54:15.584Z,2.15
2023-03-31T05:56:41.911Z,2.75
2023-03-31T05:59:08.281Z,2.35
2023-03-31T06:01:34.814Z,2.28
2023-03-31T06:04:01.326Z,3.42
2023-03-31T06:06:27.954Z,2.22
2023-03-31T06:08:54.729Z,1.92
2023-03-31T06:11:22.246Z,2.97
2023-03-31T06:13:49.190Z,2.20
2023-03-31T06:16:17.216Z,3.17
2023-03-31T06:18:43.682Z,1.88
2023-03-31T06:21:13.745Z,2.47
2023-03-31T06:23:40.924Z,2.65
2023-03-31T06:26:08.411Z,2.65
2023-03-31T06:28:35.638Z,2.25
2023-03-31T06:31:06.536Z,1.83
2023-03-31T06:33:33.734Z,1.65
2023-03-31T06:36:01.788Z,1.65
2023-03-31T06:38:28.298Z,1.90
2023-03-31T06:40:54.972Z,2.10
2023-03-31T06:43:21.256Z,2.03
2023-03-31T06:45:48.034Z,1.90
2023-03-31T06:48:14.525Z,1.75
2023-03-31T06:50:41.737Z,1.73
2023-03-31T06:53:08.550Z,1.90
2023-03-31T06:55:35.544Z,1.33
2023-03-31T06:58:02.010Z,1.50
2023-03-31T07:00:28.585Z,1.75
2023-03-31T07:02:55.101Z,1.60
2023-03-31T07:05:26.803Z,1.13
2023-03-31T07:07:53.638Z,1.80
2023-03-31T07:10:20.074Z,1.48
2023-03-31T07:12:46.361Z,1.00
2023-03-31T07:15:13.450Z,1.63
2023-03-31T07:17:42.242Z,1.27
2023-03-31T07:20:13.273Z,1.10
2023-03-31T07:22:41.474Z,1.10
2023-03-31T07:25:11.892Z,1.58
2023-03-31T07:27:38.618Z,1.60
2023-03-31T07:30:06.136Z,1.30
2023-03-31T07:32:33.227Z,1.20
2023-03-31T07:34:59.763Z,1.10
2023-03-31T07:37:26.247Z,1.40
2023-03-31T07:39:52.551Z,1.30
2023-03-31T07:42:18.982Z,1.30
2023-03-31T07:44:45.251Z,1.35
2023-03-31T07:47:11.573Z,1.60
2023-03-31T07:49:37.955Z,1.35
2023-03-31T07:52:04.362Z,1.70
2023-03-31T07:54:30.752Z,1.55
2023-03-31T07:56:57.368Z,1.50
2023-03-31T07:59:23.846Z,2.58
2023-03-31T08:01:50.166Z,1.80
2023-03-31T08:04:16.619Z,1.70
2023-03-31T08:06:42.974Z,1.58
2023-03-31T08:09:09.553Z,2.15
2023-03-31T08:11:36.775Z,1.50
2023-03-31T08:14:03.161Z,1.55
2023-03-31T08:16:29.587Z,1.50
2023-03-31T08:18:56.240Z,1.83
2023-03-31T08:21:24.512Z,1.98
2023-03-31T08:23:53.288Z,1.77
2023-03-31T08:26:19.784Z,2.47
2023-03-31T08:28:46.516Z,2.03
2023-03-31T08:31:16.310Z,2.17
2023-03-31T08:33:43.035Z,1.45
2023-03-31T08:36:11.123Z,1.70
2023-03-31T08:38:39.115Z,1.70
2023-03-31T08:41:07.366Z,2.72
2023-03-31T08:43:36.798Z,1.90
2023-03-31T08:46:04.385Z,2.47
2023-03-31T08:48:34.311Z,2.30
2023-03-31T08:51:06.133Z,3.28
2023-03-31T08:53:48.241Z,1.85
2023-03-31T08:56:19.586Z,2.65
2023-03-31T08:58:47.935Z,2.30
2023-03-31T09:01:44.112Z,2.10
2023-03-31T09:04:25.997Z,2.35
2023-03-31T09:07:08.802Z,2.72
2023-03-31T09:09:41.829Z,2.85
2023-03-31T09:12:11.700Z,2.63
2023-03-31T09:14:39.784Z,3.33
2023-03-31T09:17:15.223Z,3.67
2023-03-31T09:19:43.801Z,2.97
2023-03-31T09:22:13.221Z,4.28
2023-03-31T09:24:46.704Z,3.22
2023-03-31T09:27:13.094Z,4.68
2023-03-31T09:29:44.080Z,3.65
2023-03-31T09:32:31.257Z,4.18
2023-03-31T09:35:01.178Z,4.22
2023-03-31T09:37:30.090Z,4.57
2023-03-31T09:39:58.544Z,3.78
2023-03-31T09:42:24.960Z,3.03
2023-03-31T09:44:51.311Z,4.80
2023-03-31T09:47:22.024Z,3.05
2023-03-31T09:49:53.716Z,3.50
2023-03-31T09:52:26.898Z,3.78
2023-03-31T09:54:54.241Z,2.78
2023-03-31T09:57:34.464Z,4.20
2023-03-31T10:00:16.556Z,3.15
2023-03-31T10:02:45.622Z,3.25
2023-03-31T10:05:26.003Z,4.40
2023-03-31T10:07:53.049Z,2.80
2023-03-31T10:10:29.031Z,2.95
2023-03-31T10:12:55.917Z,3.22
2023-03-31T10:15:25.967Z,3.58
2023-03-31T10:17:55.334Z,3.63
2023-03-31T10:20:37.706Z,2.67
2023-03-31T10:23:06.606Z,3.65
2023-03-31T10:25:33.484Z,3.55
2023-03-31T10:28:01.549Z,3.55
2023-03-31T10:30:33.904Z,3.20
2023-03-31T10:33:08.438Z,2.88
2023-03-31T10:35:42.013Z,2.38
2023-03-31T10:38:12.041Z,3.75
2023-03-31T10:40:40.026Z,2.95
2023-03-31T10:43:16.952Z,2.92
2023-03-31T10:45:47.303Z,2.40
2023-03-31T10:48:18.168Z,3.38
2023-03-31T10:50:44.757Z,2.55
2023-03-31T10:53:13.426Z,2.65
2023-03-31T10:55:46.257Z,2.13
2023-03-31T10:58:18.721Z,3.63
2023-03-31T11:00:47.908Z,2.90
2023-03-31T11:03:14.315Z,2.30
2023-03-31T11:05:43.648Z,2.05
2023-03-31T11:08:17.353Z,2.78
2023-03-31T11:11:04.311Z,2.17
2023-03-31T11:13:36.985Z,2.60
2023-03-31T11:16:23.937Z,3.25
2023-03-31T11:19:05.824Z,2.92
2023-03-31T11:21:51.231Z,2.30
2023-03-31T11:24:50.778Z,2.65
2023-03-31T11:27:27.120Z,2.65
2023-03-31T11:30:04.347Z,2.75
2023-03-31T11:32:33.481Z,2.35
2023-03-31T11:34:59.926Z,2.20
2023-03-31T11:37:32.345Z,2.20
2023-03-31T11:40:18.015Z,2.92
2023-03-31T11:42:44.320Z,2.58
2023-03-31T11:45:22.655Z,3.38
2023-03-31T11:47:50.945Z,3.00
2023-03-31T11:50:22.220Z,2.67
2023-03-31T11:52:54.968Z,2.35
2023-03-31T11:55:23.285Z,2.80
2023-03-31T11:58:01.506Z,2.50
2023-03-31T12:00:33.723Z,3.00
2023-03-31T12:03:19.069Z,2.40
2023-03-31T12:05:48.162Z,2.38
2023-03-31T12:08:31.069Z,2.22
2023-03-31T12:11:17.649Z,3.05
2023-03-31T12:13:43.945Z,2.00
2023-03-31T12:16:17.430Z,2.78
2023-03-31T12:18:56.096Z,2.10
2023-03-31T12:21:22.712Z,2.45
2023-03-31T12:23:50.627Z,2.17
2023-03-31T12:26:17.025Z,2.25
2023-03-31T12:28:44.601Z,2.10
2023-03-31T12:31:15.959Z,3.60
2023-03-31T12:33:44.023Z,3.45
2023-03-31T12:36:10.981Z,2.25
2023-03-31T12:38:46.916Z,3.13
2023-03-31T12:41:32.126Z,2.67
2023-03-31T12:43:58.370Z,2.33
2023-03-31T12:46:25.064Z,2.15
2023-03-31T12:49:05.654Z,2.67
2023-03-31T12:51:37.833Z,2.67
2023-03-31T12:54:04.125Z,3.72
2023-03-31T12:56:50.772Z,2.53
2023-03-31T12:59:18.497Z,2.33
2023-03-31T13:02:03.584Z,2.67
2023-03-31T13:04:30.287Z,2.38
2023-03-31T13:06:59.569Z,3.95
2023-03-31T13:09:58.537Z,2.30
2023-03-31T13:12:27.976Z,2.03
2023-03-31T13:14:59.091Z,2.78
2023-03-31T13:17:28.313Z,3.15
2023-03-31T13:19:55.378Z,3.00
2023-03-31T13:22:35.028Z,2.78
2023-03-31T13:25:19.998Z,3.28
2023-03-31T13:27:50.158Z,2.83
2023-03-31T13:30:40.023Z,2.45
2023-03-31T13:33:11.388Z,3.13
2023-03-31T13:35:39.399Z,2.45
2023-03-31T13:38:12.886Z,2.70
2023-03-31T13:40:39.176Z,2.20
2023-03-31T13:43:23.951Z,2.42
2023-03-31T13:46:10.497Z,3.05
2023-03-31T13:48:40.311Z,2.20
2023-03-31T13:51:12.645Z,2.20
2023-03-31T13:53:54.703Z,2.72
2023-03-31T13:56:40.183Z,2.50
2023-03-31T13:59:12.409Z,3.45
2023-03-31T14:02:00.917Z,2.83
2023-03-31T14:04:38.412Z,2.53
2023-03-31T14:07:10.183Z,2.67
2023-03-31T14:09:37.203Z,2.63
2023-03-31T14:12:19.662Z,2.22
2023-03-31T14:14:46.143Z,2.05
2023-03-31T14:17:12.967Z,2.28
2023-03-31T14:19:45.665Z,2.20
2023-03-31T14:22:24.347Z,2.45
2023-03-31T14:24:56.965Z,2.05
2023-03-31T14:27:25.472Z,1.98
2023-03-31T14:30:10.419Z,2.10
2023-03-31T14:32:45.802Z,2.10
2023-03-31T14:37:40.387Z,2.08
2023-03-31T14:40:11.185Z,2.40
2023-03-31T14:42:39.812Z,2.80
2023-03-31T14:45:15.336Z,2.08
2023-03-31T14:47:41.743Z,2.25
2023-03-31T14:50:18.834Z,2.15
2023-03-31T14:52:49.182Z,2.17
2023-03-31T14:55:16.256Z,2.47
2023-03-31T14:57:43.309Z,2.03
2023-03-31T15:00:12.923Z,2.00
2023-03-31T15:02:43.108Z,1.90
2023-03-31T15:05:11.282Z,1.75
2023-03-31T15:07:40.630Z,1.85
2023-03-31T15:10:07.408Z,1.98
2023-03-31T15:12:34.016Z,1.77
2023-03-31T15:15:04.626Z,2.10
2023-03-31T15:17:34.932Z,3.00
2023-03-31T15:20:04.891Z,1.63
2023-03-31T15:22:31.532Z,2.15
2023-03-31T15:24:57.878Z,1.88
2023-03-31T15:27:36.977Z,2.30
2023-03-31T15:30:06.558Z,1.80
2023-03-31T15:32:37.761Z,1.83
2023-03-31T15:35:18.859Z,1.60
2023-03-31T15:37:48.071Z,1.48
2023-03-31T15:40:17.131Z,1.77
2023-03-31T15:42:50.624Z,1.95
2023-03-31T15:45:31.271Z,2.00
2023-03-31T15:48:01.352Z,1.60
2023-03-31T15:50:28.564Z,2.08
2023-03-31T15:52:57.791Z,1.80
2023-03-31T15:55:29.426Z,1.63
2023-03-31T15:57:58.212Z,1.77
2023-03-31T16:00:34.099Z,1.65
2023-03-31T16:03:01.853Z,1.77
2023-03-31T16:05:37.433Z,1.85
2023-03-31T16:08:15.946Z,2.50
2023-03-31T16:10:42.480Z,2.40
2023-03-31T16:13:11.329Z,1.70
2023-03-31T16:15:41.651Z,1.83
2023-03-31T16:18:10.337Z,2.22
2023-03-31T16:20:41.126Z,1.70
2023-03-31T16:23:16.282Z,1.83
2023-03-31T16:25:42.793Z,1.70
2023-03-31T16:28:13.358Z,1.77
2023-03-31T16:30:41.503Z,1.98
2023-03-31T16:33:09.380Z,2.22
2023-03-31T16:35:40.342Z,1.80
2023-03-31T16:38:09.009Z,2.05
2023-03-31T16:40:36.688Z,2.30
2023-03-31T16:43:09.089Z,1.90
2023-03-31T16:45:35.470Z,2.28
2023-03-31T16:48:12.876Z,1.80
2023-03-31T16:50:42.588Z,2.40
2023-03-31T16:53:09.151Z,2.22
2023-03-31T16:55:35.537Z,2.35
2023-03-31T16:58:03.139Z,2.42
2023-03-31T17:00:30.552Z,3.53
2023-03-31T17:02:57.976Z,2.40
2023-03-31T17:05:25.375Z,2.60
2023-03-31T17:07:52.161Z,2.60
2023-03-31T17:10:18.420Z,3.17
2023-03-31T17:12:44.791Z,2.30
2023-03-31T17:15:11.808Z,2.33
2023-03-31T17:17:38.280Z,2.22
2023-03-31T17:20:06.526Z,2.05
2023-03-31T17:22:33.167Z,2.10
2023-03-31T17:24:59.883Z,2.28
2023-03-31T17:27:27.376Z,1.77
2023-03-31T17:29:53.950Z,2.03
2023-03-31T17:32:21.000Z,2.10
2023-03-31T17:34:48.589Z,2.20
2023-03-31T17:37:16.761Z,2.40
2023-03-31T17:39:43.286Z,2.20
2023-03-31T17:42:10.222Z,2.45
2023-03-31T17:44:36.618Z,2.38
2023-03-31T17:47:03.304Z,2.47
2023-03-31T17:49:29.741Z,2.10
2023-03-31T17:51:57.270Z,1.85
2023-03-31T17:54:23.611Z,2.55
2023-03-31T17:56:50.280Z,2.70
2023-03-31T17:59:17.165Z,2.13
2023-03-31T18:01:43.688Z,2.45
2023-03-31T18:04:10.357Z,2.58
2023-03-31T18:06:36.769Z,2.30
2023-03-31T18:09:05.493Z,2.50
2023-03-31T18:11:32.758Z,2.75
2023-03-31T18:14:01.847Z,2.40
2023-03-31T18:16:29.387Z,2.42
2023-03-31T18:18:56.161Z,2.50
2023-03-31T18:21:23.934Z,2.25
2023-03-31T18:23:55.105Z,2.70
2023-03-31T18:26:22.619Z,2.70
2023-03-31T18:28:49.045Z,2.20
2023-03-31T18:31:15.472Z,2.50
2023-03-31T18:33:42.255Z,2.42
2023-03-31T18:36:09.318Z,2.90
2023-03-31T18:38:36.861Z,2.95
2023-03-31T18:41:03.563Z,2.92
2023-03-31T18:43:31.940Z,3.35
2023-03-31T18:46:01.311Z,3.60
2023-03-31T18:48:27.758Z,3.63
2023-03-31T18:50:54.211Z,4.03
2023-03-31T18:53:21.882Z,3.92
2023-03-31T18:55:49.069Z,3.70
2023-03-31T18:58:15.400Z,4.35
2023-03-31T19:00:41.983Z,4.38
2023-03-31T19:03:08.885Z,4.28
2023-03-31T19:05:35.318Z,4.90
2023-03-31T19:08:01.600Z,4.45
2023-03-31T19:10:28.610Z,4.97
2023-03-31T19:12:55.209Z,3.95
2023-03-31T19:15:22.452Z,4.90
2023-03-31T19:17:48.739Z,4.53
2023-03-31T19:20:17.744Z,4.45
2023-03-31T19:22:44.970Z,4.38
2023-03-31T19:25:11.896Z,4.60
2023-03-31T19:27:39.406Z,4.65
2023-03-31T19:30:06.757Z,4.53
2023-03-31T19:34:59.541Z,4.38
2023-03-31T19:37:26.319Z,4.32
2023-03-31T19:39:52.641Z,4.75
2023-03-31T19:42:18.939Z,4.40
2023-03-31T19:44:45.829Z,4.47
2023-03-31T19:47:12.399Z,4.53
2023-03-31T19:49:38.734Z,4.30
2023-03-31T19:52:05.606Z,4.30
2023-03-31T19:54:32.049Z,4.38
2023-03-31T19:56:58.402Z,4.25
2023-03-31T19:59:24.888Z,4.50
2023-03-31T20:01:51.613Z,4.90
2023-03-31T20:04:18.434Z,4.88
2023-03-31T20:06:44.893Z,4.90
2023-03-31T20:09:11.473Z,4.85
2023-03-31T20:11:37.939Z,5.22
2023-03-31T20:14:04.313Z,4.63
2023-03-31T20:16:31.638Z,4.57
2023-03-31T20:18:59.120Z,5.18
2023-03-31T20:21:27.241Z,6.03
2023-03-31T20:23:53.659Z,4.90
2023-03-31T20:26:21.432Z,5.32
2023-03-31T20:28:48.338Z,5.63
2023-03-31T20:31:14.889Z,5.63
2023-03-31T20:33:43.391Z,5.38
2023-03-31T20:36:11.368Z,5.05
2023-03-31T20:38:38.665Z,5.72
2023-03-31T20:41:05.517Z,5.13
2023-03-31T20:43:32.903Z,5.70
2023-03-31T20:46:04.213Z,5.22
2023-03-31T20:48:30.535Z,5.38
2023-03-31T20:50:57.443Z,6.00
2023-03-31T20:53:23.923Z,5.78
2023-03-31T20:55:50.551Z,5.13
2023-03-31T20:58:16.928Z,5.82
2023-03-31T21:00:43.243Z,5.55
2023-03-31T21:03:10.188Z,5.50
2023-03-31T21:05:43.522Z,4.93
2023-03-31T21:08:10.681Z,5.75
2023-03-31T21:10:46.541Z,4.80
2023-03-31T21:13:14.064Z,4.32
2023-03-31T21:15:40.395Z,4.72
2023-03-31T21:18:07.316Z,4.78
2023-03-31T21:20:33.972Z,4.43
2023-03-31T21:23:00.933Z,4.90
2023-03-31T21:25:27.714Z,4.78
2023-03-31T21:27:54.088Z,4.85
2023-03-31T21:30:21.321Z,5.15
2023-03-31T21:32:47.641Z,4.85
2023-03-31T21:35:14.001Z,4.32
2023-03-31T21:37:40.318Z,4.35
2023-03-31T21:40:07.089Z,4.38
2023-03-31T21:42:34.444Z,3.85
2023-03-31T21:45:01.179Z,3.70
2023-03-31T21:47:28.428Z,4.25
2023-03-31T21:49:55.325Z,3.28
2023-03-31T21:52:22.476Z,4.07
2023-03-31T21:54:48.762Z,3.83
2023-03-31T21:57:15.111Z,3.90
2023-03-31T21:59:41.377Z,3.25
2023-03-31T22:02:07.922Z,3.33
2023-03-31T22:04:34.357Z,3.08
2023-03-31T22:07:00.661Z,3.08
2023-03-31T22:09:27.535Z,3.40
2023-03-31T22:11:53.881Z,2.88
2023-03-31T22:14:20.263Z,3.55
2023-03-31T22:16:46.654Z,3.20
2023-03-31T22:19:13.366Z,3.05
2023-03-31T22:21:40.318Z,3.67
2023-03-31T22:24:10.299Z,2.55
2023-03-31T22:26:36.598Z,3.10
2023-03-31T22:29:02.909Z,3.00
2023-03-31T22:31:29.649Z,2.35
2023-03-31T22:33:56.281Z,2.47
2023-03-31T22:36:22.985Z,2.40
2023-03-31T22:38:49.421Z,2.47
2023-03-31T22:41:15.787Z,2.88
2023-03-31T22:43:45.293Z,2.85
2023-03-31T22:46:12.326Z,3.10
2023-03-31T22:48:39.237Z,3.35
2023-03-31T22:51:16.237Z,3.08
2023-03-31T22:53:42.697Z,3.13
2023-03-31T22:56:11.185Z,3.42
2023-03-31T22:58:38.296Z,3.38
2023-03-31T23:01:07.944Z,4.13
2023-03-31T23:03:34.363Z,4.13
2023-03-31T23:06:05.088Z,4.25
2023-03-31T23:08:31.810Z,3.55
2023-03-31T23:10:58.680Z,4.10
2023-03-31T23:13:26.214Z,4.20
2023-03-31T23:15:52.680Z,4.55
2023-03-31T23:18:19.008Z,4.55
2023-03-31T23:20:45.758Z,4.90
2023-03-31T23:23:12.035Z,5.80
2023-03-31T23:25:38.361Z,5.00
2023-03-31T23:28:04.812Z,5.22
2023-03-31T23:30:31.132Z,6.45
2023-03-31T23:32:58.085Z,6.15
2023-03-31T23:35:24.326Z,7.05
2023-03-31T23:37:50.850Z,6.97
2023-03-31T23:40:17.227Z,7.25
2023-03-31T23:42:43.452Z,6.90
2023-03-31T23:45:10.024Z,8.18
2023-03-31T23:47:40.586Z,8.00
2023-03-31T23:50:07.886Z,7.75
2023-03-31T23:52:35.910Z,9.18
2023-03-31T23:55:02.729Z,8.52
2023-03-31T23:57:29.248Z,8.30
2023-03-31T23:59:55.567Z,8.55
